createdAt,value
2023-01-07T00:00:33.886Z,18.75
2023-01-07T00:02:35.384Z,18.67
2023-01-07T00:04:36.868Z,18.58
2023-01-07T00:06:40.070Z,18.17
2023-01-07T00:08:43.661Z,18.27
2023-01-07T00:10:45.109Z,18.95
2023-01-07T00:12:46.552Z,18.00
2023-01-07T00:14:48.018Z,18.58
2023-01-07T00:16:49.546Z,18.80
2023-01-07T00:18:52.251Z,18.98
2023-01-07T00:20:57.895Z,19.80
2023-01-07T00:22:59.330Z,19.85
2023-01-07T00:25:00.775Z,19.10
2023-01-07T00:27:02.256Z,20.00
2023-01-07T00:29:05.036Z,18.40
2023-01-07T00:31:16.653Z,20.05
2023-01-07T00:33:18.428Z,20.50
2023-01-07T00:35:23.479Z,20.42
2023-01-07T00:37:43.581Z,21.00
2023-01-07T00:39:45.122Z,20.88
2023-01-07T00:42:06.260Z,22.25
2023-01-07T00:44:08.280Z,21.83
2023-01-07T00:46:12.550Z,22.27
2023-01-07T00:48:14.037Z,22.35
2023-01-07T00:50:15.531Z,24.42
2023-01-07T00:52:17.032Z,23.95
2023-01-07T00:54:18.738Z,23.98
2023-01-07T00:56:20.250Z,24.20
2023-01-07T00:58:24.690Z,25.52
2023-01-07T01:00:26.505Z,24.98
2023-01-07T01:02:28.063Z,25.38
2023-01-07T01:04:29.565Z,26.27
2023-01-07T01:06:31.013Z,25.77
2023-01-07T01:08:32.829Z,27.05
2023-01-07T01:10:34.415Z,26.75
2023-01-07T01:12:36.107Z,26.38
2023-01-07T01:14:37.569Z,26.45
2023-01-07T01:16:39.445Z,27.05
2023-01-07T01:18:41.487Z,27.00
2023-01-07T01:20:43.023Z,27.67
2023-01-07T01:22:44.929Z,27.20
2023-01-07T01:24:46.382Z,27.65
2023-01-07T01:26:47.880Z,27.10
2023-01-07T01:28:49.350Z,28.10
2023-01-07T01:30:56.981Z,27.48
2023-01-07T01:32:58.451Z,26.23
2023-01-07T01:34:59.983Z,25.83
2023-01-07T01:37:01.617Z,28.50
2023-01-07T01:39:03.256Z,26.02
2023-01-07T01:41:05.905Z,27.45
2023-01-07T01:43:26.856Z,26.25
2023-01-07T01:45:29.420Z,26.60
2023-01-07T01:47:51.721Z,27.13
2023-01-07T01:50:00.058Z,26.48
2023-01-07T01:52:09.610Z,26.73
2023-01-07T01:54:14.616Z,24.73
2023-01-07T01:56:27.660Z,26.10
2023-01-07T01:58:37.292Z,25.00
2023-01-07T02:00:38.909Z,25.25
2023-01-07T02:02:47.719Z,25.42
2023-01-07T02:07:11.640Z,25.48
2023-01-07T02:09:13.424Z,25.73
2023-01-07T02:11:31.646Z,26.63
2023-01-07T02:14:10.258Z,26.33
2023-01-07T02:16:26.844Z,25.70
2023-01-07T02:18:28.267Z,26.23
2023-01-07T02:20:54.705Z,25.60
2023-01-07T02:23:08.817Z,25.13
2023-01-07T02:25:52.379Z,24.48
2023-01-07T02:28:05.804Z,24.95
2023-01-07T02:30:10.266Z,24.15
2023-01-07T02:32:35.266Z,24.23
2023-01-07T02:34:39.421Z,25.20
2023-01-07T02:36:56.607Z,23.17
2023-01-07T02:39:26.120Z,24.35
2023-01-07T02:41:39.255Z,23.60
2023-01-07T02:43:54.078Z,22.10
2023-01-07T02:46:02.413Z,23.15
2023-01-07T02:48:08.435Z,23.55
2023-01-07T02:50:10.179Z,21.92
2023-01-07T02:52:22.499Z,21.85
2023-01-07T02:54:29.337Z,21.70
2023-01-07T02:56:36.420Z,21.38
2023-01-07T02:59:14.952Z,20.73
2023-01-07T03:03:38.133Z,21.50
2023-01-07T03:05:48.620Z,20.70
2023-01-07T03:07:59.282Z,21.23
2023-01-07T03:10:20.773Z,20.83
2023-01-07T03:12:51.588Z,19.95
2023-01-07T03:15:07.620Z,19.50
2023-01-07T03:17:15.297Z,19.73
2023-01-07T03:19:20.450Z,20.23
2023-01-07T03:21:23.576Z,20.33
2023-01-07T03:23:27.593Z,19.58
2023-01-07T03:25:31.300Z,19.33
2023-01-07T03:27:35.835Z,20.13
2023-01-07T03:29:37.422Z,20.63
2023-01-07T03:31:46.662Z,20.77
2023-01-07T03:33:54.962Z,19.55
2023-01-07T03:35:59.853Z,19.45
2023-01-07T03:38:03.345Z,19.10
2023-01-07T03:40:09.954Z,18.85
2023-01-07T03:42:31.706Z,18.35
2023-01-07T03:44:33.199Z,18.45
2023-01-07T03:46:37.061Z,19.13
2023-01-07T03:48:38.541Z,18.25
2023-01-07T03:50:40.069Z,17.77
2023-01-07T03:52:41.572Z,18.00
2023-01-07T03:54:43.054Z,17.60
2023-01-07T03:56:44.531Z,17.60
2023-01-07T03:58:46.062Z,17.90
2023-01-07T04:00:47.562Z,17.83
2023-01-07T04:02:49.186Z,17.55
2023-01-07T04:04:50.748Z,18.27
2023-01-07T04:06:52.979Z,17.63
2023-01-07T04:08:54.468Z,17.20
2023-01-07T04:10:55.947Z,17.60
2023-01-07T04:12:57.394Z,16.67
2023-01-07T04:14:59.365Z,17.65
2023-01-07T04:17:01.086Z,17.45
2023-01-07T04:19:02.616Z,17.20
2023-01-07T04:21:04.292Z,17.83
2023-01-07T04:23:05.771Z,17.52
2023-01-07T04:25:07.649Z,17.50
2023-01-07T04:27:09.444Z,16.95
2023-01-07T04:29:11.478Z,17.50
2023-01-07T04:31:13.030Z,17.52
2023-01-07T04:33:14.600Z,18.30
2023-01-07T04:35:16.209Z,18.02
2023-01-07T04:37:17.714Z,17.92
2023-01-07T04:39:19.216Z,17.40
2023-01-07T04:41:20.695Z,16.83
2023-01-07T04:43:22.161Z,18.15
2023-01-07T04:45:24.028Z,18.40
2023-01-07T04:47:25.523Z,18.45
2023-01-07T04:49:27.042Z,18.48
2023-01-07T04:51:28.596Z,17.42
2023-01-07T04:53:30.099Z,17.48
2023-01-07T04:55:32.163Z,17.95
2023-01-07T04:57:33.682Z,17.65
2023-01-07T04:59:35.144Z,17.95
2023-01-07T05:01:36.845Z,17.98
2023-01-07T05:03:38.449Z,16.92
2023-01-07T05:05:39.916Z,18.13
2023-01-07T05:07:41.378Z,17.42
2023-01-07T05:09:42.848Z,17.17
2023-01-07T05:11:44.330Z,18.02
2023-01-07T05:13:45.788Z,17.75
2023-01-07T05:15:47.878Z,17.02
2023-01-07T05:17:49.335Z,17.10
2023-01-07T05:19:50.836Z,17.73
2023-01-07T05:21:52.361Z,17.48
2023-01-07T05:23:53.940Z,17.58
2023-01-07T05:25:55.467Z,17.65
2023-01-07T05:27:57.090Z,17.52
2023-01-07T05:29:58.548Z,18.10
2023-01-07T05:32:00.148Z,17.52
2023-01-07T05:34:01.654Z,16.95
2023-01-07T05:36:03.506Z,17.42
2023-01-07T05:38:04.985Z,17.45
2023-01-07T05:40:07.196Z,16.85
2023-01-07T05:42:08.699Z,16.35
2023-01-07T05:44:10.163Z,16.20
2023-01-07T05:46:11.732Z,17.00
2023-01-07T05:48:13.613Z,16.30
2023-01-07T05:50:15.114Z,16.63
2023-01-07T05:52:16.950Z,16.30
2023-01-07T05:54:18.424Z,16.67
2023-01-07T05:56:19.936Z,15.82
2023-01-07T05:58:21.444Z,15.73
2023-01-07T06:00:22.897Z,15.93
2023-01-07T06:02:24.385Z,15.52
2023-01-07T06:04:25.983Z,15.23
2023-01-07T06:06:27.510Z,15.10
2023-01-07T06:08:28.966Z,15.38
2023-01-07T06:10:30.455Z,14.90
2023-01-07T06:12:32.026Z,15.95
2023-01-07T06:14:33.540Z,16.08
2023-01-07T06:16:35.451Z,15.30
2023-01-07T06:18:37.070Z,14.80
2023-01-07T06:20:38.519Z,14.82
2023-01-07T06:22:39.978Z,14.25
2023-01-07T06:24:41.448Z,13.65
2023-01-07T06:26:42.975Z,15.15
2023-01-07T06:28:44.595Z,14.45
2023-01-07T06:30:47.225Z,13.70
2023-01-07T06:32:48.832Z,14.10
2023-01-07T06:34:50.350Z,13.65
2023-01-07T06:36:51.856Z,13.80
2023-01-07T06:38:53.350Z,14.00
2023-01-07T06:40:54.835Z,13.82
2023-01-07T06:42:56.374Z,13.20
2023-01-07T06:44:57.967Z,14.10
2023-01-07T06:46:59.527Z,13.70
2023-01-07T06:49:01.130Z,13.15
2023-01-07T06:51:02.711Z,13.32
2023-01-07T06:53:04.190Z,13.45
2023-01-07T06:55:06.006Z,13.18
2023-01-07T06:57:07.569Z,13.35
2023-01-07T06:59:10.294Z,12.75
2023-01-07T07:01:12.099Z,12.80
2023-01-07T07:03:13.784Z,12.75
2023-01-07T07:05:15.787Z,12.57
2023-01-07T07:07:17.946Z,12.32
2023-01-07T07:09:19.419Z,12.20
2023-01-07T07:11:20.963Z,12.65
2023-01-07T07:13:22.429Z,12.57
2023-01-07T07:15:23.908Z,12.13
2023-01-07T07:17:25.381Z,12.55
2023-01-07T07:19:26.896Z,11.82
2023-01-07T07:21:28.360Z,12.45
2023-01-07T07:23:29.824Z,11.93
2023-01-07T07:25:31.400Z,12.40
2023-01-07T07:27:32.866Z,12.00
2023-01-07T07:29:34.411Z,12.48
2023-01-07T07:31:36.573Z,11.50
2023-01-07T07:33:38.121Z,10.93
2023-01-07T07:35:39.571Z,10.75
2023-01-07T07:37:41.052Z,11.63
2023-01-07T07:39:42.512Z,10.90
2023-01-07T07:41:44.049Z,11.10
2023-01-07T07:43:45.838Z,11.43
2023-01-07T07:45:47.299Z,10.68
2023-01-07T07:47:48.819Z,10.52
2023-01-07T07:49:51.117Z,10.35
2023-01-07T07:51:52.709Z,9.98
2023-01-07T07:53:54.157Z,10.57
2023-01-07T07:55:55.593Z,10.20
2023-01-07T07:57:58.409Z,9.85
2023-01-07T07:59:59.992Z,10.27
2023-01-07T08:02:01.718Z,9.77
2023-01-07T08:04:03.244Z,9.80
2023-01-07T08:06:05.278Z,10.05
2023-01-07T08:08:08.479Z,9.52
2023-01-07T08:10:10.057Z,10.50
2023-01-07T08:12:11.513Z,9.38
2023-01-07T08:14:13.022Z,9.70
2023-01-07T08:16:14.531Z,8.65
2023-01-07T08:18:16.071Z,8.80
2023-01-07T08:20:17.660Z,8.75
2023-01-07T08:22:19.167Z,8.88
2023-01-07T08:24:20.747Z,7.95
2023-01-07T08:26:22.235Z,8.05
2023-01-07T08:28:23.696Z,8.07
2023-01-07T08:30:26.458Z,7.13
2023-01-07T08:32:27.985Z,7.10
2023-01-07T08:34:29.436Z,6.95
2023-01-07T08:36:30.989Z,5.60
2023-01-07T08:38:32.585Z,5.47
2023-01-07T08:40:35.253Z,5.47
2023-01-07T08:42:36.764Z,4.72
2023-01-07T08:44:38.224Z,5.13
2023-01-07T08:46:39.801Z,4.65
2023-01-07T08:48:41.482Z,4.32
2023-01-07T08:50:43.286Z,4.90
2023-01-07T08:52:47.792Z,4.28
2023-01-07T08:54:49.840Z,4.00
2023-01-07T08:56:51.382Z,4.45
2023-01-07T08:58:53.008Z,4.40
2023-01-07T09:00:54.613Z,4.47
2023-01-07T09:02:56.155Z,4.20
2023-01-07T09:04:57.642Z,4.32
2023-01-07T09:06:59.104Z,3.80
2023-01-07T09:09:00.642Z,3.35
2023-01-07T09:11:02.180Z,4.30
2023-01-07T09:13:04.012Z,3.88
2023-01-07T09:15:06.009Z,3.40
2023-01-07T09:17:07.458Z,3.72
2023-01-07T09:19:09.147Z,3.20
2023-01-07T09:21:10.752Z,3.20
2023-01-07T09:23:12.271Z,2.88
2023-01-07T09:25:13.862Z,2.70
2023-01-07T09:27:16.677Z,2.80
2023-01-07T09:29:18.520Z,3.05
2023-01-07T09:31:20.092Z,2.67
2023-01-07T09:33:21.598Z,2.83
2023-01-07T09:35:23.187Z,2.55
2023-01-07T09:37:24.837Z,2.30
2023-01-07T09:39:26.672Z,2.05
2023-01-07T09:41:57.874Z,2.97
2023-01-07T09:44:26.711Z,2.10
2023-01-07T09:46:29.378Z,2.10
2023-01-07T09:48:41.279Z,1.58
2023-01-07T09:50:51.454Z,1.70
2023-01-07T09:52:57.989Z,1.52
2023-01-07T09:55:19.407Z,1.50
2023-01-07T09:57:20.964Z,1.75
2023-01-07T09:59:22.468Z,2.22
2023-01-07T10:01:45.166Z,1.33
2023-01-07T10:04:16.274Z,1.92
2023-01-07T10:06:35.145Z,1.40
2023-01-07T10:09:04.186Z,1.38
2023-01-07T10:11:23.725Z,1.40
2023-01-07T10:14:06.285Z,1.40
2023-01-07T10:16:18.738Z,1.17
2023-01-07T10:18:35.424Z,1.27
2023-01-07T10:20:58.971Z,1.40
2023-01-07T10:23:11.694Z,1.30
2023-01-07T10:25:26.565Z,1.30
2023-01-07T10:27:32.993Z,1.40
2023-01-07T10:29:36.476Z,1.13
2023-01-07T10:31:38.195Z,1.20
2023-01-07T10:33:40.457Z,0.90
2023-01-07T10:35:41.911Z,0.98
2023-01-07T10:37:43.713Z,1.60
2023-01-07T10:40:14.542Z,1.30
2023-01-07T10:42:28.874Z,1.55
2023-01-07T10:44:46.234Z,1.23
2023-01-07T10:46:56.645Z,1.20
2023-01-07T10:49:13.301Z,1.60
2023-01-07T10:51:49.635Z,2.03
2023-01-07T10:54:29.424Z,1.40
2023-01-07T10:56:39.048Z,1.10
2023-01-07T10:58:43.345Z,1.08
2023-01-07T11:00:48.078Z,1.10
2023-01-07T11:02:57.640Z,1.40
2023-01-07T11:05:00.025Z,1.30
2023-01-07T11:07:16.663Z,1.63
2023-01-07T11:09:22.549Z,1.55
2023-01-07T11:11:24.858Z,1.30
2023-01-07T11:13:30.436Z,1.27
2023-01-07T11:15:36.656Z,1.27
2023-01-07T11:17:47.355Z,1.23
2023-01-07T11:19:51.452Z,1.30
2023-01-07T11:21:52.907Z,1.02
2023-01-07T11:23:55.238Z,0.98
2023-01-07T11:26:18.363Z,1.00
2023-01-07T11:28:26.719Z,1.08
2023-01-07T11:30:32.315Z,1.08
2023-01-07T11:32:38.405Z,0.90
2023-01-07T11:34:56.417Z,1.25
2023-01-07T11:36:58.235Z,0.90
2023-01-07T11:39:10.122Z,1.20
2023-01-07T11:41:26.207Z,1.02
2023-01-07T11:43:40.702Z,1.10
2023-01-07T11:46:20.097Z,0.90
2023-01-07T11:48:25.745Z,0.95
2023-01-07T11:50:42.714Z,1.00
2023-01-07T11:53:21.242Z,1.10
2023-01-07T11:55:23.280Z,0.80
2023-01-07T11:57:26.686Z,0.93
2023-01-07T11:59:30.248Z,1.00
2023-01-07T12:01:42.726Z,0.90
2023-01-07T12:03:56.375Z,1.00
2023-01-07T12:06:02.715Z,0.98
2023-01-07T12:08:05.989Z,0.88
2023-01-07T12:10:25.639Z,1.00
2023-01-07T12:12:39.221Z,1.33
2023-01-07T12:14:48.117Z,1.10
2023-01-07T12:16:51.661Z,1.02
2023-01-07T12:19:14.439Z,0.90
2023-01-07T12:21:31.463Z,1.00
2023-01-07T12:23:38.949Z,1.30
2023-01-07T12:25:56.763Z,1.48
2023-01-07T12:28:12.977Z,1.08
2023-01-07T12:30:32.958Z,1.10
2023-01-07T12:32:56.052Z,1.00
2023-01-07T12:35:14.377Z,0.93
2023-01-07T12:37:38.744Z,1.20
2023-01-07T12:39:46.468Z,1.10
2023-01-07T12:41:58.075Z,0.90
2023-01-07T12:44:07.456Z,0.80
2023-01-07T12:46:16.500Z,1.05
2023-01-07T12:48:26.915Z,1.40
2023-01-07T12:50:50.971Z,0.88
2023-01-07T12:52:58.465Z,0.77
2023-01-07T12:55:06.540Z,0.82
2023-01-07T12:57:34.675Z,1.25
2023-01-07T12:59:46.781Z,1.00
2023-01-07T13:01:49.500Z,0.90
2023-01-07T13:04:09.038Z,0.82
2023-01-07T13:06:18.515Z,0.93
2023-01-07T13:08:43.471Z,0.82
2023-01-07T13:10:53.892Z,0.80
2023-01-07T13:13:00.907Z,0.82
2023-01-07T13:15:10.104Z,0.80
2023-01-07T13:17:16.463Z,1.10
2023-01-07T13:19:17.956Z,1.00
2023-01-07T13:21:21.808Z,0.70
2023-01-07T13:23:26.091Z,1.17
2023-01-07T13:25:45.842Z,0.95
2023-01-07T13:28:05.377Z,0.73
2023-01-07T13:30:25.651Z,0.93
2023-01-07T13:32:33.189Z,0.88
2023-01-07T13:34:50.088Z,0.80
2023-01-07T13:37:16.668Z,0.90
2023-01-07T13:39:38.555Z,0.65
2023-01-07T13:42:04.853Z,0.80
2023-01-07T13:44:35.231Z,0.80
2023-01-07T13:46:40.977Z,1.10
2023-01-07T13:48:52.093Z,0.82
2023-01-07T13:51:05.803Z,0.60
2023-01-07T13:53:27.208Z,0.70
2023-01-07T13:55:34.268Z,0.95
2023-01-07T13:57:35.747Z,0.60
2023-01-07T13:59:48.625Z,0.93
2023-01-07T14:02:29.367Z,0.85
2023-01-07T14:04:35.964Z,0.63
2023-01-07T14:06:43.680Z,1.15
2023-01-07T14:08:52.957Z,0.90
2023-01-07T14:10:55.646Z,0.70
2023-01-07T14:13:14.397Z,0.50
2023-01-07T14:15:22.126Z,0.70
2023-01-07T14:17:52.417Z,0.70
2023-01-07T14:20:20.530Z,0.80
2023-01-07T14:22:40.388Z,0.60
2023-01-07T14:24:47.636Z,0.60
2023-01-07T14:27:27.612Z,0.63
2023-01-07T14:29:43.937Z,0.60
2023-01-07T14:31:45.958Z,0.80
2023-01-07T14:33:51.923Z,0.82
2023-01-07T14:35:59.659Z,0.80
2023-01-07T14:38:01.435Z,0.67
2023-01-07T14:40:30.778Z,0.65
2023-01-07T14:42:38.516Z,0.70
2023-01-07T14:44:39.990Z,0.63
2023-01-07T14:46:46.904Z,0.80
2023-01-07T14:49:01.795Z,0.60
2023-01-07T14:51:40.677Z,0.70
2023-01-07T14:54:19.529Z,0.80
2023-01-07T14:56:35.412Z,3.00
2023-01-07T14:58:58.415Z,1.52
2023-01-07T15:01:18.723Z,1.15
2023-01-07T15:03:32.199Z,0.82
2023-01-07T15:05:52.005Z,1.20
2023-01-07T15:08:21.036Z,1.00
2023-01-07T15:10:48.618Z,0.90
2023-01-07T15:13:14.894Z,0.82
2023-01-07T15:15:46.662Z,0.90
2023-01-07T15:17:48.225Z,1.00
2023-01-07T15:19:51.811Z,1.27
2023-01-07T15:22:07.890Z,1.00
2023-01-07T15:24:09.623Z,2.67
2023-01-07T15:26:17.261Z,2.10
2023-01-07T15:28:47.659Z,0.98
2023-01-07T15:31:07.826Z,1.17
2023-01-07T15:33:30.705Z,1.00
2023-01-07T15:35:37.837Z,1.20
2023-01-07T15:37:45.147Z,1.17
2023-01-07T15:39:52.095Z,1.00
2023-01-07T15:41:55.279Z,1.17
2023-01-07T15:43:57.318Z,1.25
2023-01-07T15:46:07.887Z,1.60
2023-01-07T15:48:12.476Z,1.20
2023-01-07T15:50:30.136Z,1.80
2023-01-07T15:52:31.643Z,1.70
2023-01-07T15:54:35.646Z,1.10
2023-01-07T15:56:37.129Z,1.13
2023-01-07T15:58:48.677Z,1.73
2023-01-07T16:00:56.641Z,1.30
2023-01-07T16:02:58.621Z,1.85
2023-01-07T16:05:02.487Z,1.25
2023-01-07T16:07:04.231Z,1.20
2023-01-07T16:09:19.373Z,1.38
2023-01-07T16:11:29.111Z,2.30
2023-01-07T16:13:32.250Z,1.60
2023-01-07T16:15:37.032Z,1.25
2023-01-07T16:17:50.046Z,1.70
2023-01-07T16:20:09.688Z,1.60
2023-01-07T16:22:18.969Z,1.38
2023-01-07T16:24:20.580Z,1.50
2023-01-07T16:26:31.574Z,1.50
2023-01-07T16:28:38.128Z,1.52
2023-01-07T16:30:41.641Z,1.33
2023-01-07T16:32:45.342Z,1.65
2023-01-07T16:34:56.046Z,1.45
2023-01-07T16:37:00.222Z,1.23
2023-01-07T16:39:10.604Z,1.77
2023-01-07T16:41:30.523Z,2.13
2023-01-07T16:43:43.928Z,2.22
2023-01-07T16:45:46.478Z,2.42
2023-01-07T16:48:01.092Z,2.60
2023-01-07T16:50:14.598Z,1.98
2023-01-07T16:52:18.651Z,2.08
2023-01-07T16:54:26.402Z,1.63
2023-01-07T16:56:27.946Z,1.83
2023-01-07T16:58:42.573Z,1.60
2023-01-07T17:00:52.154Z,1.80
2023-01-07T17:02:59.709Z,1.98
2023-01-07T17:05:19.773Z,2.20
2023-01-07T17:07:26.747Z,2.58
2023-01-07T17:09:35.810Z,2.10
2023-01-07T17:11:39.784Z,1.77
2023-01-07T17:13:41.218Z,2.08
2023-01-07T17:15:43.553Z,2.55
2023-01-07T17:17:45.035Z,1.88
2023-01-07T17:19:53.049Z,2.45
2023-01-07T17:21:55.040Z,1.92
2023-01-07T17:23:56.604Z,2.60
2023-01-07T17:26:00.767Z,2.05
2023-01-07T17:28:08.457Z,2.10
2023-01-07T17:30:17.169Z,2.15
2023-01-07T17:34:20.152Z,1.92
2023-01-07T17:36:25.986Z,1.77
2023-01-07T17:38:29.346Z,1.50
2023-01-07T17:40:30.821Z,1.45
2023-01-07T17:42:51.903Z,1.90
2023-01-07T17:44:53.345Z,1.77
2023-01-07T17:46:54.814Z,1.70
2023-01-07T17:49:00.979Z,2.10
2023-01-07T17:51:04.552Z,1.88
2023-01-07T17:53:06.135Z,1.60
2023-01-07T17:55:12.547Z,1.35
2023-01-07T17:57:14.001Z,1.60
2023-01-07T17:59:23.156Z,1.75
2023-01-07T18:01:26.404Z,1.90
2023-01-07T18:03:28.751Z,1.80
2023-01-07T18:05:30.234Z,1.70
2023-01-07T18:07:31.671Z,1.70
2023-01-07T18:09:33.128Z,1.52
2023-01-07T18:11:58.803Z,1.55
2023-01-07T18:14:00.855Z,1.73
2023-01-07T18:16:02.575Z,1.40
2023-01-07T18:18:04.176Z,1.30
2023-01-07T18:20:05.991Z,1.55
2023-01-07T18:22:07.476Z,2.53
2023-01-07T18:24:14.815Z,1.83
2023-01-07T18:26:17.552Z,1.60
2023-01-07T18:28:19.003Z,2.10
2023-01-07T18:30:22.085Z,1.50
2023-01-07T18:32:23.531Z,1.65
2023-01-07T18:34:25.108Z,2.20
2023-01-07T18:36:26.575Z,1.83
2023-01-07T18:38:28.246Z,1.90
2023-01-07T18:40:29.843Z,1.55
2023-01-07T18:42:31.822Z,1.65
2023-01-07T18:44:33.297Z,2.03
2023-01-07T18:46:34.776Z,2.00
2023-01-07T18:48:36.687Z,1.63
2023-01-07T18:50:42.654Z,1.70
2023-01-07T18:52:44.918Z,1.50
2023-01-07T18:54:46.412Z,1.38
2023-01-07T18:56:47.911Z,1.80
2023-01-07T18:58:53.319Z,1.50
2023-01-07T19:00:55.106Z,1.50
2023-01-07T19:03:00.178Z,1.60
2023-01-07T19:05:01.624Z,1.90
2023-01-07T19:07:03.858Z,1.80
2023-01-07T19:09:05.302Z,1.83
2023-01-07T19:11:09.385Z,1.83
2023-01-07T19:13:11.135Z,1.95
2023-01-07T19:15:12.624Z,2.20
2023-01-07T19:17:14.104Z,2.10
2023-01-07T19:19:15.788Z,2.30
2023-01-07T19:21:17.341Z,2.08
2023-01-07T19:23:18.825Z,2.60
2023-01-07T19:25:20.262Z,2.78
2023-01-07T19:27:21.706Z,3.42
2023-01-07T19:29:23.175Z,3.55
2023-01-07T19:31:24.769Z,2.80
2023-01-07T19:33:26.335Z,2.50
2023-01-07T19:35:28.049Z,2.40
2023-01-07T19:37:29.513Z,11.13
2023-01-07T19:39:31.007Z,9.43
2023-01-07T19:41:34.013Z,3.10
2023-01-07T19:43:35.725Z,2.50
2023-01-07T19:45:37.215Z,2.83
2023-01-07T19:47:39.358Z,2.60
2023-01-07T19:49:41.832Z,2.10
2023-01-07T19:51:43.731Z,2.60
2023-01-07T19:53:47.870Z,2.10
2023-01-07T19:55:51.070Z,1.92
2023-01-07T19:57:52.558Z,2.20
2023-01-07T19:59:54.095Z,2.13
2023-01-07T20:01:55.937Z,2.10
2023-01-07T20:03:58.975Z,2.20
2023-01-07T20:06:02.715Z,2.05
2023-01-07T20:08:05.088Z,2.10
2023-01-07T20:10:07.198Z,1.85
2023-01-07T20:12:08.714Z,2.25
2023-01-07T20:14:12.036Z,2.17
2023-01-07T20:16:16.737Z,2.50
2023-01-07T20:18:18.310Z,2.60
2023-01-07T20:20:19.784Z,1.90
2023-01-07T20:22:21.325Z,2.20
2023-01-07T20:24:22.808Z,2.20
2023-01-07T20:26:29.653Z,2.10
2023-01-07T20:28:31.465Z,2.15
2023-01-07T20:30:32.895Z,2.03
2023-01-07T20:32:34.694Z,2.25
2023-01-07T20:34:36.129Z,2.30
2023-01-07T20:36:37.597Z,2.40
2023-01-07T20:38:39.813Z,2.55
2023-01-07T20:40:41.944Z,2.45
2023-01-07T20:42:43.398Z,1.80
2023-01-07T20:44:46.576Z,2.42
2023-01-07T20:46:48.117Z,2.28
2023-01-07T20:48:49.912Z,2.30
2023-01-07T20:50:51.374Z,2.50
2023-01-07T20:52:52.874Z,2.08
2023-01-07T20:54:54.366Z,2.35
2023-01-07T20:56:55.827Z,2.10
2023-01-07T20:59:00.990Z,2.20
2023-01-07T21:01:11.633Z,2.00
2023-01-07T21:03:13.190Z,2.40
2023-01-07T21:05:20.000Z,2.40
2023-01-07T21:07:21.455Z,2.50
2023-01-07T21:09:22.963Z,2.00
2023-01-07T21:11:24.557Z,2.30
2023-01-07T21:13:26.075Z,2.00
2023-01-07T21:15:27.562Z,2.30
2023-01-07T21:17:29.014Z,2.40
2023-01-07T21:19:30.451Z,2.33
2023-01-07T21:21:31.958Z,2.10
2023-01-07T21:23:34.498Z,2.00
2023-01-07T21:25:36.178Z,2.33
2023-01-07T21:27:38.242Z,2.20
2023-01-07T21:29:39.829Z,2.30
2023-01-07T21:31:42.291Z,2.38
2023-01-07T21:33:43.876Z,2.42
2023-01-07T21:35:45.398Z,2.70
2023-01-07T21:37:47.094Z,2.78
2023-01-07T21:39:48.694Z,2.78
2023-01-07T21:41:50.233Z,2.80
2023-01-07T21:43:52.068Z,2.45
2023-01-07T21:45:53.578Z,2.40
2023-01-07T21:47:55.098Z,2.55
2023-01-07T21:49:56.852Z,2.38
2023-01-07T21:51:58.541Z,2.47
2023-01-07T21:54:00.234Z,2.50
2023-01-07T21:56:10.489Z,2.25
2023-01-07T21:58:11.951Z,2.25
2023-01-07T22:00:14.104Z,2.20
2023-01-07T22:02:17.741Z,2.40
2023-01-07T22:04:19.508Z,2.53
2023-01-07T22:06:23.097Z,2.20
2023-01-07T22:08:25.175Z,2.10
2023-01-07T22:10:26.619Z,2.20
2023-01-07T22:12:28.080Z,2.30
2023-01-07T22:14:29.601Z,2.20
2023-01-07T22:16:32.073Z,2.30
2023-01-07T22:18:33.830Z,2.20
2023-01-07T22:20:35.388Z,1.98
2023-01-07T22:22:36.850Z,2.47
2023-01-07T22:24:38.351Z,2.28
2023-01-07T22:26:41.174Z,2.50
2023-01-07T22:28:45.911Z,2.38
2023-01-07T22:30:52.925Z,2.28
2023-01-07T22:32:54.364Z,2.28
2023-01-07T22:34:55.848Z,2.50
2023-01-07T22:37:07.288Z,2.53
2023-01-07T22:39:15.719Z,2.13
2023-01-07T22:41:18.064Z,2.30
2023-01-07T22:43:24.005Z,2.70
2023-01-07T22:45:59.858Z,2.28
2023-01-07T22:48:02.473Z,2.25
2023-01-07T22:50:06.442Z,2.20
2023-01-07T22:52:08.880Z,2.33
2023-01-07T22:54:12.016Z,2.50
2023-01-07T22:56:14.099Z,2.30
2023-01-07T22:58:17.026Z,2.05
2023-01-07T23:00:54.791Z,2.22
2023-01-07T23:02:56.285Z,2.20
2023-01-07T23:04:57.785Z,2.38
2023-01-07T23:06:59.286Z,2.25
2023-01-07T23:09:01.003Z,2.00
2023-01-07T23:11:02.755Z,2.10
2023-01-07T23:13:05.477Z,2.28
2023-01-07T23:15:07.136Z,2.40
2023-01-07T23:17:10.403Z,2.10
2023-01-07T23:19:12.769Z,2.10
2023-01-07T23:21:14.201Z,2.25
2023-01-07T23:23:15.663Z,2.30
2023-01-07T23:25:17.253Z,2.30
2023-01-07T23:27:18.697Z,2.10
2023-01-07T23:29:20.993Z,2.53
2023-01-07T23:31:22.459Z,1.90
2023-01-07T23:33:23.964Z,2.40
2023-01-07T23:35:25.427Z,2.45
2023-01-07T23:37:26.890Z,2.38
2023-01-07T23:39:28.350Z,2.25
2023-01-07T23:41:31.074Z,2.25
2023-01-07T23:43:33.201Z,2.00
2023-01-07T23:45:34.719Z,2.50
2023-01-07T23:47:36.227Z,2.25
2023-01-07T23:49:37.947Z,2.15
2023-01-07T23:51:40.511Z,2.30
2023-01-07T23:53:42.626Z,2.40
2023-01-07T23:55:54.599Z,2.15
2023-01-07T23:57:56.030Z,2.35
2023-01-07T23:59:58.299Z,2.70
